sensor_id;sensor_type;location;lat;lon;timestamp;pressure;altitude;pressure_sealevel;temperature;humidity
71567;BME280;59403;47.456;19.120;2024-01-16T00:02:00;99088.09;;;0.85;91.25
71567;BME280;59403;47.456;19.120;2024-01-16T00:04:27;99095.91;;;0.85;91.54
71567;BME280;59403;47.456;19.120;2024-01-16T00:06:55;99092.84;;;0.71;92.09
71567;BME280;59403;47.456;19.120;2024-01-16T00:09:22;99092.75;;;0.82;91.65
71567;BME280;59403;47.456;19.120;2024-01-16T00:11:50;99094.72;;;0.89;91.60
71567;BME280;59403;47.456;19.120;2024-01-16T00:14:17;99090.94;;;0.73;92.51
71567;BME280;59403;47.456;19.120;2024-01-16T00:16:44;99096.31;;;0.81;92.09
71567;BME280;59403;47.456;19.120;2024-01-16T00:19:11;99106.34;;;0.85;92.09
71567;BME280;59403;47.456;19.120;2024-01-16T00:21:39;99108.06;;;0.75;92.80
71567;BME280;59403;47.456;19.120;2024-01-16T00:24:06;99113.09;;;0.88;92.31
71567;BME280;59403;47.456;19.120;2024-01-16T00:26:33;99125.94;;;0.80;92.87
71567;BME280;59403;47.456;19.120;2024-01-16T00:29:01;99115.31;;;0.72;93.13
71567;BME280;59403;47.456;19.120;2024-01-16T00:31:27;99119.63;;;0.62;94.80
71567;BME280;59403;47.456;19.120;2024-01-16T00:33:54;99137.91;;;0.71;94.02
71567;BME280;59403;47.456;19.120;2024-01-16T00:36:21;99130.63;;;0.65;94.23
71567;BME280;59403;47.456;19.120;2024-01-16T00:38:48;99146.38;;;0.64;94.51
71567;BME280;59403;47.456;19.120;2024-01-16T00:41:15;99144.72;;;0.63;94.93
71567;BME280;59403;47.456;19.120;2024-01-16T00:43:42;99154.50;;;0.50;96.24
71567;BME280;59403;47.456;19.120;2024-01-16T00:46:10;99157.81;;;0.52;96.27
71567;BME280;59403;47.456;19.120;2024-01-16T00:48:37;99158.91;;;0.38;96.50
71567;BME280;59403;47.456;19.120;2024-01-16T00:51:04;99160.09;;;0.34;97.23
71567;BME280;59403;47.456;19.120;2024-01-16T00:53:31;99168.94;;;0.43;96.73
71567;BME280;59403;47.456;19.120;2024-01-16T00:55:57;99179.94;;;0.46;96.30
71567;BME280;59403;47.456;19.120;2024-01-16T00:58:24;99175.44;;;0.48;96.23
71567;BME280;59403;47.456;19.120;2024-01-16T01:00:51;99190.50;;;0.45;96.78
71567;BME280;59403;47.456;19.120;2024-01-16T01:03:20;99195.84;;;0.43;96.38
71567;BME280;59403;47.456;19.120;2024-01-16T01:05:46;99196.75;;;0.53;95.78
71567;BME280;59403;47.456;19.120;2024-01-16T01:08:13;99201.94;;;0.53;95.93
71567;BME280;59403;47.456;19.120;2024-01-16T01:10:39;99195.78;;;0.54;95.44
71567;BME280;59403;47.456;19.120;2024-01-16T01:13:06;99188.31;;;0.61;93.97
71567;BME280;59403;47.456;19.120;2024-01-16T01:15:33;99200.13;;;0.65;93.39
71567;BME280;59403;47.456;19.120;2024-01-16T01:18:00;99197.44;;;0.55;93.85
71567;BME280;59403;47.456;19.120;2024-01-16T01:20:28;99209.06;;;0.51;94.61
71567;BME280;59403;47.456;19.120;2024-01-16T01:22:54;99205.25;;;0.55;94.76
71567;BME280;59403;47.456;19.120;2024-01-16T01:25:21;99211.19;;;0.57;94.51
71567;BME280;59403;47.456;19.120;2024-01-16T01:27:48;99208.94;;;0.53;94.32
71567;BME280;59403;47.456;19.120;2024-01-16T01:30:15;99210.22;;;0.58;94.47
71567;BME280;59403;47.456;19.120;2024-01-16T01:32:41;99209.72;;;0.64;93.69
71567;BME280;59403;47.456;19.120;2024-01-16T01:35:09;99216.97;;;0.61;93.29
71567;BME280;59403;47.456;19.120;2024-01-16T01:37:38;99203.75;;;0.73;92.16
71567;BME280;59403;47.456;19.120;2024-01-16T01:40:06;99205.31;;;0.65;92.53
71567;BME280;59403;47.456;19.120;2024-01-16T01:42:33;99207.59;;;0.69;91.49
71567;BME280;59403;47.456;19.120;2024-01-16T01:45:00;99221.13;;;0.84;90.27
71567;BME280;59403;47.456;19.120;2024-01-16T01:47:27;99219.06;;;0.67;91.68
71567;BME280;59403;47.456;19.120;2024-01-16T01:49:54;99217.66;;;0.63;91.64
71567;BME280;59403;47.456;19.120;2024-01-16T01:52:21;99216.91;;;0.72;90.28
71567;BME280;59403;47.456;19.120;2024-01-16T01:54:51;99217.56;;;0.64;91.06
71567;BME280;59403;47.456;19.120;2024-01-16T01:57:18;99233.84;;;0.66;90.79
71567;BME280;59403;47.456;19.120;2024-01-16T01:59:45;99232.78;;;0.69;90.46
71567;BME280;59403;47.456;19.120;2024-01-16T02:04:49;99245.13;;;0.56;91.82
71567;BME280;59403;47.456;19.120;2024-01-16T02:07:27;99241.22;;;0.61;91.44
71567;BME280;59403;47.456;19.120;2024-01-16T02:10:50;99250.94;;;0.59;91.69
71567;BME280;59403;47.456;19.120;2024-01-16T02:13:32;99256.97;;;0.60;91.37
71567;BME280;59403;47.456;19.120;2024-01-16T02:16:18;99254.16;;;0.52;91.82
71567;BME280;59403;47.456;19.120;2024-01-16T02:19:01;99262.69;;;0.43;92.42
71567;BME280;59403;47.456;19.120;2024-01-16T02:21:39;99272.31;;;0.31;93.13
71567;BME280;59403;47.456;19.120;2024-01-16T02:24:24;99257.41;;;0.22;93.11
71567;BME280;59403;47.456;19.120;2024-01-16T02:27:20;99261.06;;;0.20;93.90
71567;BME280;59403;47.456;19.120;2024-01-16T02:30:02;99286.84;;;0.23;93.81
71567;BME280;59403;47.456;19.120;2024-01-16T02:32:48;99284.37;;;0.21;94.25
71567;BME280;59403;47.456;19.120;2024-01-16T02:35:38;99291.22;;;0.11;94.68
71567;BME280;59403;47.456;19.120;2024-01-16T02:38:44;99298.69;;;0.05;95.59
71567;BME280;59403;47.456;19.120;2024-01-16T02:45:07;99296.09;;;0.16;94.67
71567;BME280;59403;47.456;19.120;2024-01-16T02:47:43;99293.50;;;0.05;95.82
71567;BME280;59403;47.456;19.120;2024-01-16T02:50:24;99279.28;;;-0.03;95.48
71567;BME280;59403;47.456;19.120;2024-01-16T02:53:12;99301.88;;;0.08;95.45
71567;BME280;59403;47.456;19.120;2024-01-16T02:56:09;99303.66;;;0.08;95.16
71567;BME280;59403;47.456;19.120;2024-01-16T02:58:56;99307.91;;;-0.03;95.99
71567;BME280;59403;47.456;19.120;2024-01-16T03:11:10;99314.66;;;0.11;94.18
71567;BME280;59403;47.456;19.120;2024-01-16T03:29:56;99344.56;;;-0.17;95.87
71567;BME280;59403;47.456;19.120;2024-01-16T03:32:23;99334.38;;;-0.20;95.61
71567;BME280;59403;47.456;19.120;2024-01-16T03:34:50;99343.47;;;-0.25;96.14
71567;BME280;59403;47.456;19.120;2024-01-16T03:37:20;99353.53;;;-0.21;95.95
71567;BME280;59403;47.456;19.120;2024-01-16T03:39:49;99355.66;;;-0.26;96.11
71567;BME280;59403;47.456;19.120;2024-01-16T03:42:29;99327.72;;;-0.46;96.31
71567;BME280;59403;47.456;19.120;2024-01-16T04:08:21;99378.13;;;-0.25;94.21
71567;BME280;59403;47.456;19.120;2024-01-16T04:10:52;99388.41;;;-0.23;93.93
71567;BME280;59403;47.456;19.120;2024-01-16T04:20:54;99385.94;;;-0.25;93.68
71567;BME280;59403;47.456;19.120;2024-01-16T04:39:57;99428.41;;;-0.13;91.00
71567;BME280;59403;47.456;19.120;2024-01-16T04:46:14;99424.41;;;-0.06;90.21
71567;BME280;59403;47.456;19.120;2024-01-16T05:40:43;99493.00;;;-0.07;86.70
71567;BME280;59403;47.456;19.120;2024-01-16T05:43:16;99504.72;;;-0.02;85.91
71567;BME280;59403;47.456;19.120;2024-01-16T05:45:54;99509.19;;;-0.15;86.90
71567;BME280;59403;47.456;19.120;2024-01-16T05:49:04;99516.94;;;-0.02;86.24
71567;BME280;59403;47.456;19.120;2024-01-16T06:27:17;99556.66;;;-0.24;85.30
71567;BME280;59403;47.456;19.120;2024-01-16T06:29:46;99554.16;;;-0.25;85.47
71567;BME280;59403;47.456;19.120;2024-01-16T06:32:14;99559.37;;;-0.25;85.22
71567;BME280;59403;47.456;19.120;2024-01-16T06:34:42;99566.72;;;-0.19;84.63
71567;BME280;59403;47.456;19.120;2024-01-16T06:37:09;99545.38;;;-0.35;84.67
71567;BME280;59403;47.456;19.120;2024-01-16T06:39:35;99585.50;;;-0.03;82.90
71567;BME280;59403;47.456;19.120;2024-01-16T06:42:03;99597.75;;;-0.16;83.84
71567;BME280;59403;47.456;19.120;2024-01-16T06:44:47;99576.31;;;-0.20;83.20
71567;BME280;59403;47.456;19.120;2024-01-16T06:47:13;99589.37;;;-0.09;82.56
71567;BME280;59403;47.456;19.120;2024-01-16T06:49:40;99609.56;;;-0.12;83.15
71567;BME280;59403;47.456;19.120;2024-01-16T06:52:08;99611.75;;;-0.06;81.99
71567;BME280;59403;47.456;19.120;2024-01-16T06:54:36;99622.88;;;-0.04;82.10
71567;BME280;59403;47.456;19.120;2024-01-16T06:57:04;99619.44;;;-0.28;83.35
71567;BME280;59403;47.456;19.120;2024-01-16T06:59:30;99619.53;;;-0.30;83.12
71567;BME280;59403;47.456;19.120;2024-01-16T07:01:59;99634.31;;;-0.30;83.48
71567;BME280;59403;47.456;19.120;2024-01-16T07:04:25;99633.06;;;-0.25;82.28
71567;BME280;59403;47.456;19.120;2024-01-16T07:06:53;99658.72;;;-0.08;82.12
71567;BME280;59403;47.456;19.120;2024-01-16T07:09:33;99663.06;;;-0.08;82.04
71567;BME280;59403;47.456;19.120;2024-01-16T07:12:00;99670.03;;;-0.09;82.22
71567;BME280;59403;47.456;19.120;2024-01-16T07:14:32;99651.66;;;-0.18;81.91
71567;BME280;59403;47.456;19.120;2024-01-16T07:17:21;99682.34;;;-0.11;81.65
71567;BME280;59403;47.456;19.120;2024-01-16T07:20:10;99681.59;;;0.00;80.76
71567;BME280;59403;47.456;19.120;2024-01-16T07:22:46;99668.97;;;0.07;79.66
71567;BME280;59403;47.456;19.120;2024-01-16T07:25:17;99683.03;;;0.04;80.88
71567;BME280;59403;47.456;19.120;2024-01-16T07:27:44;99694.56;;;0.13;79.84
71567;BME280;59403;47.456;19.120;2024-01-16T07:30:26;99677.59;;;0.07;79.61
71567;BME280;59403;47.456;19.120;2024-01-16T07:36:09;99705.16;;;0.22;79.74
71567;BME280;59403;47.456;19.120;2024-01-16T07:41:51;99719.53;;;0.51;77.52
71567;BME280;59403;47.456;19.120;2024-01-16T07:44:35;99721.97;;;0.65;76.69
71567;BME280;59403;47.456;19.120;2024-01-16T07:51:01;99728.88;;;0.77;76.07
71567;BME280;59403;47.456;19.120;2024-01-16T07:53:59;99728.22;;;0.86;75.27
71567;BME280;59403;47.456;19.120;2024-01-16T07:56:52;99738.69;;;0.97;74.48
71567;BME280;59403;47.456;19.120;2024-01-16T07:59:26;99750.13;;;1.07;73.43
71567;BME280;59403;47.456;19.120;2024-01-16T08:01:52;99750.81;;;1.09;73.90
71567;BME280;59403;47.456;19.120;2024-01-16T08:04:26;99757.94;;;1.18;72.69
71567;BME280;59403;47.456;19.120;2024-01-16T08:07:00;99736.13;;;1.08;73.50
71567;BME280;59403;47.456;19.120;2024-01-16T08:09:29;99752.41;;;1.23;73.24
71567;BME280;59403;47.456;19.120;2024-01-16T08:11:56;99761.78;;;1.26;73.48
71567;BME280;59403;47.456;19.120;2024-01-16T08:14:22;99741.25;;;1.21;72.62
71567;BME280;59403;47.456;19.120;2024-01-16T08:16:49;99759.94;;;1.39;72.29
71567;BME280;59403;47.456;19.120;2024-01-16T08:19:19;99761.56;;;1.40;72.33
71567;BME280;59403;47.456;19.120;2024-01-16T08:21:49;99761.69;;;1.38;73.11
71567;BME280;59403;47.456;19.120;2024-01-16T08:27:21;99773.09;;;1.48;71.71
71567;BME280;59403;47.456;19.120;2024-01-16T08:29:57;99773.97;;;1.60;72.49
71567;BME280;59403;47.456;19.120;2024-01-16T08:32:29;99773.50;;;1.66;71.52
71567;BME280;59403;47.456;19.120;2024-01-16T08:34:56;99774.09;;;1.69;70.96
71567;BME280;59403;47.456;19.120;2024-01-16T08:37:23;99773.84;;;1.61;69.43
71567;BME280;59403;47.456;19.120;2024-01-16T08:39:50;99770.75;;;1.67;67.45
71567;BME280;59403;47.456;19.120;2024-01-16T08:42:28;99790.22;;;1.74;68.05
71567;BME280;59403;47.456;19.120;2024-01-16T08:45:09;99785.50;;;1.79;67.37
71567;BME280;59403;47.456;19.120;2024-01-16T08:47:36;99802.00;;;1.80;67.11
71567;BME280;59403;47.456;19.120;2024-01-16T08:50:03;99799.50;;;1.78;66.98
71567;BME280;59403;47.456;19.120;2024-01-16T08:52:30;99802.09;;;1.78;67.34
71567;BME280;59403;47.456;19.120;2024-01-16T08:54:57;99800.09;;;1.82;67.08
71567;BME280;59403;47.456;19.120;2024-01-16T08:57:25;99806.41;;;1.90;65.00
71567;BME280;59403;47.456;19.120;2024-01-16T08:59:52;99791.31;;;1.83;66.40
71567;BME280;59403;47.456;19.120;2024-01-16T09:02:19;99806.75;;;1.97;66.16
71567;BME280;59403;47.456;19.120;2024-01-16T09:04:47;99819.81;;;2.08;64.78
71567;BME280;59403;47.456;19.120;2024-01-16T09:07:15;99829.19;;;2.10;65.04
71567;BME280;59403;47.456;19.120;2024-01-16T09:09:42;99827.28;;;2.12;64.84
71567;BME280;59403;47.456;19.120;2024-01-16T09:12:09;99834.53;;;2.09;63.67
71567;BME280;59403;47.456;19.120;2024-01-16T09:14:37;99823.50;;;2.16;63.53
71567;BME280;59403;47.456;19.120;2024-01-16T09:17:04;99829.66;;;2.15;62.78
71567;BME280;59403;47.456;19.120;2024-01-16T09:19:31;99832.66;;;2.33;62.85
71567;BME280;59403;47.456;19.120;2024-01-16T09:21:57;99828.72;;;2.50;61.97
71567;BME280;59403;47.456;19.120;2024-01-16T09:24:24;99828.81;;;2.59;60.69
71567;BME280;59403;47.456;19.120;2024-01-16T09:26:50;99832.75;;;2.65;60.45
71567;BME280;59403;47.456;19.120;2024-01-16T09:29:17;99824.78;;;2.66;59.93
71567;BME280;59403;47.456;19.120;2024-01-16T09:31:45;99837.38;;;2.61;58.88
71567;BME280;59403;47.456;19.120;2024-01-16T09:34:12;99824.81;;;2.55;59.32
71567;BME280;59403;47.456;19.120;2024-01-16T09:36:39;99831.56;;;2.58;58.78
71567;BME280;59403;47.456;19.120;2024-01-16T09:39:06;99834.78;;;2.72;58.96
71567;BME280;59403;47.456;19.120;2024-01-16T09:41:34;99824.44;;;2.71;58.49
71567;BME280;59403;47.456;19.120;2024-01-16T09:44:01;99832.87;;;2.74;58.29
71567;BME280;59403;47.456;19.120;2024-01-16T09:46:28;99831.31;;;2.83;57.52
71567;BME280;59403;47.456;19.120;2024-01-16T09:49:00;99833.22;;;2.81;57.68
71567;BME280;59403;47.456;19.120;2024-01-16T09:51:27;99829.75;;;2.91;57.56
71567;BME280;59403;47.456;19.120;2024-01-16T09:53:54;99828.06;;;2.90;56.94
71567;BME280;59403;47.456;19.120;2024-01-16T09:56:22;99802.69;;;2.70;56.19
71567;BME280;59403;47.456;19.120;2024-01-16T09:58:50;99822.97;;;2.89;56.98
71567;BME280;59403;47.456;19.120;2024-01-16T10:01:19;99831.50;;;3.02;56.61
71567;BME280;59403;47.456;19.120;2024-01-16T10:03:46;99820.91;;;3.03;57.01
71567;BME280;59403;47.456;19.120;2024-01-16T10:06:15;99814.44;;;3.18;56.86
71567;BME280;59403;47.456;19.120;2024-01-16T10:08:44;99820.25;;;3.22;56.71
71567;BME280;59403;47.456;19.120;2024-01-16T10:11:11;99807.72;;;3.36;55.82
71567;BME280;59403;47.456;19.120;2024-01-16T10:13:38;99819.25;;;3.34;57.34
71567;BME280;59403;47.456;19.120;2024-01-16T10:16:05;99816.56;;;3.24;56.72
71567;BME280;59403;47.456;19.120;2024-01-16T10:18:32;99813.50;;;3.19;56.65
71567;BME280;59403;47.456;19.120;2024-01-16T10:20:59;99816.81;;;3.21;55.54
71567;BME280;59403;47.456;19.120;2024-01-16T10:23:28;99818.13;;;3.16;56.18
71567;BME280;59403;47.456;19.120;2024-01-16T10:26:08;99823.50;;;3.14;55.71
71567;BME280;59403;47.456;19.120;2024-01-16T10:28:36;99827.75;;;3.15;55.83
71567;BME280;59403;47.456;19.120;2024-01-16T10:31:03;99830.09;;;3.29;55.97
71567;BME280;59403;47.456;19.120;2024-01-16T10:33:30;99836.81;;;3.43;55.41
71567;BME280;59403;47.456;19.120;2024-01-16T10:36:08;99833.34;;;3.42;55.30
71567;BME280;59403;47.456;19.120;2024-01-16T10:38:37;99830.41;;;3.36;55.42
71567;BME280;59403;47.456;19.120;2024-01-16T10:41:06;99824.47;;;3.34;55.75
71567;BME280;59403;47.456;19.120;2024-01-16T10:43:32;99823.28;;;3.38;55.32
71567;BME280;59403;47.456;19.120;2024-01-16T10:46:07;99822.81;;;3.33;55.11
71567;BME280;59403;47.456;19.120;2024-01-16T10:48:34;99831.69;;;3.21;55.19
71567;BME280;59403;47.456;19.120;2024-01-16T10:51:02;99829.91;;;3.21;54.97
71567;BME280;59403;47.456;19.120;2024-01-16T10:53:32;99825.47;;;3.22;54.96
71567;BME280;59403;47.456;19.120;2024-01-16T10:56:01;99830.56;;;3.23;54.68
71567;BME280;59403;47.456;19.120;2024-01-16T10:58:30;99816.81;;;3.21;54.94
71567;BME280;59403;47.456;19.120;2024-01-16T11:00:59;99827.28;;;3.21;55.04
71567;BME280;59403;47.456;19.120;2024-01-16T11:03:35;99827.81;;;3.36;54.79
71567;BME280;59403;47.456;19.120;2024-01-16T11:09:29;99830.16;;;3.39;54.87
71567;BME280;59403;47.456;19.120;2024-01-16T11:11:58;99826.16;;;3.35;55.33
71567;BME280;59403;47.456;19.120;2024-01-16T11:14:25;99830.16;;;3.39;54.97
71567;BME280;59403;47.456;19.120;2024-01-16T11:16:53;99826.53;;;3.51;54.82
71567;BME280;59403;47.456;19.120;2024-01-16T11:19:22;99825.72;;;3.51;55.42
71567;BME280;59403;47.456;19.120;2024-01-16T11:21:49;99830.00;;;3.52;54.97
71567;BME280;59403;47.456;19.120;2024-01-16T11:24:16;99828.50;;;3.38;55.07
71567;BME280;59403;47.456;19.120;2024-01-16T11:26:43;99822.75;;;3.44;54.87
71567;BME280;59403;47.456;19.120;2024-01-16T11:29:36;99819.81;;;3.37;55.29
71567;BME280;59403;47.456;19.120;2024-01-16T11:32:03;99822.09;;;3.42;54.73
71567;BME280;59403;47.456;19.120;2024-01-16T11:34:52;99826.09;;;3.46;55.17
71567;BME280;59403;47.456;19.120;2024-01-16T11:37:27;99824.31;;;3.46;54.59
71567;BME280;59403;47.456;19.120;2024-01-16T11:40:20;99826.03;;;3.57;54.89
71567;BME280;59403;47.456;19.120;2024-01-16T11:42:47;99830.16;;;3.39;54.11
71567;BME280;59403;47.456;19.120;2024-01-16T11:48:18;99829.94;;;3.42;54.67
71567;BME280;59403;47.456;19.120;2024-01-16T11:50:46;99828.94;;;3.54;54.52
71567;BME280;59403;47.456;19.120;2024-01-16T11:53:32;99831.84;;;3.61;54.15
71567;BME280;59403;47.456;19.120;2024-01-16T11:56:46;99829.19;;;3.72;54.33
71567;BME280;59403;47.456;19.120;2024-01-16T11:59:40;99823.22;;;4.11;53.47
71567;BME280;59403;47.456;19.120;2024-01-16T12:02:14;99818.50;;;4.05;53.78
71567;BME280;59403;47.456;19.120;2024-01-16T12:04:52;99822.47;;;3.99;52.89
71567;BME280;59403;47.456;19.120;2024-01-16T12:07:19;99821.19;;;3.94;53.35
71567;BME280;59403;47.456;19.120;2024-01-16T12:09:46;99830.38;;;4.09;53.11
71567;BME280;59403;47.456;19.120;2024-01-16T12:12:15;99824.25;;;3.99;52.10
71567;BME280;59403;47.456;19.120;2024-01-16T12:14:51;99829.00;;;4.05;52.97
71567;BME280;59403;47.456;19.120;2024-01-16T12:17:18;99826.69;;;3.91;52.81
71567;BME280;59403;47.456;19.120;2024-01-16T12:19:45;99834.03;;;3.97;52.71
71567;BME280;59403;47.456;19.120;2024-01-16T12:22:14;99837.03;;;3.92;52.62
71567;BME280;59403;47.456;19.120;2024-01-16T12:24:42;99830.53;;;3.87;51.84
71567;BME280;59403;47.456;19.120;2024-01-16T12:27:08;99824.56;;;3.85;51.75
71567;BME280;59403;47.456;19.120;2024-01-16T12:29:35;99829.88;;;3.94;51.98
71567;BME280;59403;47.456;19.120;2024-01-16T12:32:06;99820.78;;;3.98;51.60
71567;BME280;59403;47.456;19.120;2024-01-16T12:34:34;99826.88;;;3.99;51.26
71567;BME280;59403;47.456;19.120;2024-01-16T12:37:04;99817.53;;;4.06;51.37
71567;BME280;59403;47.456;19.120;2024-01-16T12:39:33;99833.28;;;4.15;50.29
71567;BME280;59403;47.456;19.120;2024-01-16T12:42:01;99826.03;;;3.98;50.72
71567;BME280;59403;47.456;19.120;2024-01-16T12:44:27;99827.88;;;4.07;50.54
71567;BME280;59403;47.456;19.120;2024-01-16T12:46:54;99819.28;;;3.96;50.88
71567;BME280;59403;47.456;19.120;2024-01-16T12:49:21;99822.84;;;3.95;50.27
71567;BME280;59403;47.456;19.120;2024-01-16T12:51:49;99824.38;;;3.97;50.38
71567;BME280;59403;47.456;19.120;2024-01-16T12:54:17;99802.22;;;4.01;50.60
71567;BME280;59403;47.456;19.120;2024-01-16T12:56:45;99825.97;;;4.09;50.01
71567;BME280;59403;47.456;19.120;2024-01-16T12:59:13;99819.75;;;4.10;49.48
71567;BME280;59403;47.456;19.120;2024-01-16T13:01:41;99826.22;;;4.06;49.37
71567;BME280;59403;47.456;19.120;2024-01-16T13:04:11;99823.06;;;4.12;49.38
71567;BME280;59403;47.456;19.120;2024-01-16T13:06:39;99827.94;;;3.96;49.67
71567;BME280;59403;47.456;19.120;2024-01-16T13:09:10;99820.69;;;3.79;50.15
71567;BME280;59403;47.456;19.120;2024-01-16T13:11:50;99827.06;;;3.66;50.42
71567;BME280;59403;47.456;19.120;2024-01-16T13:14:17;99841.34;;;3.62;50.34
71567;BME280;59403;47.456;19.120;2024-01-16T13:16:46;99832.69;;;3.61;49.51
71567;BME280;59403;47.456;19.120;2024-01-16T13:19:16;99838.56;;;3.54;48.75
71567;BME280;59403;47.456;19.120;2024-01-16T13:21:42;99840.00;;;3.46;49.38
71567;BME280;59403;47.456;19.120;2024-01-16T13:24:09;99839.31;;;3.44;50.12
71567;BME280;59403;47.456;19.120;2024-01-16T13:26:36;99835.50;;;3.48;50.05
71567;BME280;59403;47.456;19.120;2024-01-16T13:29:05;99824.56;;;3.43;50.20
71567;BME280;59403;47.456;19.120;2024-01-16T13:31:32;99824.41;;;3.56;49.86
71567;BME280;59403;47.456;19.120;2024-01-16T13:33:59;99826.50;;;3.62;49.33
71567;BME280;59403;47.456;19.120;2024-01-16T13:36:27;99830.25;;;3.69;48.95
71567;BME280;59403;47.456;19.120;2024-01-16T13:38:54;99827.06;;;3.66;49.95
71567;BME280;59403;47.456;19.120;2024-01-16T13:41:21;99831.53;;;3.75;49.52
71567;BME280;59403;47.456;19.120;2024-01-16T13:43:48;99833.41;;;3.84;48.82
71567;BME280;59403;47.456;19.120;2024-01-16T13:46:17;99850.59;;;3.77;48.03
71567;BME280;59403;47.456;19.120;2024-01-16T13:48:43;99846.72;;;3.60;49.16
71567;BME280;59403;47.456;19.120;2024-01-16T13:51:10;99839.44;;;3.64;49.02
71567;BME280;59403;47.456;19.120;2024-01-16T13:53:37;99843.97;;;3.62;49.14
71567;BME280;59403;47.456;19.120;2024-01-16T13:56:04;99842.50;;;3.48;49.08
71567;BME280;59403;47.456;19.120;2024-01-16T13:58:31;99844.41;;;3.46;49.06
71567;BME280;59403;47.456;19.120;2024-01-16T14:00:58;99857.09;;;3.30;49.55
71567;BME280;59403;47.456;19.120;2024-01-16T14:03:26;99854.69;;;3.38;47.99
71567;BME280;59403;47.456;19.120;2024-01-16T14:05:53;99851.88;;;3.30;47.88
71567;BME280;59403;47.456;19.120;2024-01-16T14:08:21;99844.81;;;3.30;48.16
71567;BME280;59403;47.456;19.120;2024-01-16T14:10:47;99845.53;;;3.32;48.72
71567;BME280;59403;47.456;19.120;2024-01-16T14:13:14;99844.69;;;3.32;48.67
71567;BME280;59403;47.456;19.120;2024-01-16T14:15:41;99843.75;;;3.33;47.89
71567;BME280;59403;47.456;19.120;2024-01-16T14:18:07;99852.44;;;3.33;48.20
71567;BME280;59403;47.456;19.120;2024-01-16T14:20:35;99845.81;;;3.18;49.15
71567;BME280;59403;47.456;19.120;2024-01-16T14:23:02;99854.94;;;3.35;47.64
71567;BME280;59403;47.456;19.120;2024-01-16T14:25:29;99857.69;;;3.33;48.09
71567;BME280;59403;47.456;19.120;2024-01-16T14:27:58;99859.13;;;3.26;48.06
71567;BME280;59403;47.456;19.120;2024-01-16T14:30:27;99854.63;;;3.17;48.66
71567;BME280;59403;47.456;19.120;2024-01-16T14:32:54;99864.66;;;3.12;49.10
71567;BME280;59403;47.456;19.120;2024-01-16T14:35:22;99862.75;;;3.03;49.52
71567;BME280;59403;47.456;19.120;2024-01-16T14:37:50;99865.50;;;3.02;50.08
71567;BME280;59403;47.456;19.120;2024-01-16T14:40:17;99858.84;;;2.87;50.21
71567;BME280;59403;47.456;19.120;2024-01-16T14:42:50;99866.34;;;2.91;50.55
71567;BME280;59403;47.456;19.120;2024-01-16T14:45:21;99860.78;;;2.85;50.77
71567;BME280;59403;47.456;19.120;2024-01-16T14:47:51;99858.75;;;2.88;50.35
71567;BME280;59403;47.456;19.120;2024-01-16T14:50:31;99864.84;;;2.78;51.17
71567;BME280;59403;47.456;19.120;2024-01-16T14:52:59;99861.75;;;2.73;51.05
71567;BME280;59403;47.456;19.120;2024-01-16T14:58:35;99864.37;;;2.62;52.19
71567;BME280;59403;47.456;19.120;2024-01-16T15:01:01;99866.25;;;2.49;52.35
71567;BME280;59403;47.456;19.120;2024-01-16T15:03:32;99877.78;;;2.46;52.85
71567;BME280;59403;47.456;19.120;2024-01-16T15:05:59;99876.94;;;2.46;52.42
71567;BME280;59403;47.456;19.120;2024-01-16T15:08:27;99873.75;;;2.42;52.66
71567;BME280;59403;47.456;19.120;2024-01-16T15:10:57;99880.53;;;2.45;51.75
71567;BME280;59403;47.456;19.120;2024-01-16T15:13:25;99877.44;;;2.40;52.18
71567;BME280;59403;47.456;19.120;2024-01-16T15:15:52;99872.19;;;2.28;52.61
71567;BME280;59403;47.456;19.120;2024-01-16T15:18:19;99879.78;;;2.20;53.82
71567;BME280;59403;47.456;19.120;2024-01-16T15:20:46;99877.75;;;2.13;53.65
71567;BME280;59403;47.456;19.120;2024-01-16T15:23:13;99880.94;;;2.05;54.48
71567;BME280;59403;47.456;19.120;2024-01-16T15:25:41;99876.53;;;1.95;55.00
71567;BME280;59403;47.456;19.120;2024-01-16T15:28:07;99877.25;;;1.97;54.85
71567;BME280;59403;47.456;19.120;2024-01-16T15:30:34;99880.34;;;1.91;54.90
71567;BME280;59403;47.456;19.120;2024-01-16T15:33:01;99884.34;;;1.84;55.24
71567;BME280;59403;47.456;19.120;2024-01-16T15:35:29;99875.91;;;1.80;56.12
71567;BME280;59403;47.456;19.120;2024-01-16T15:37:56;99881.25;;;1.79;55.77
71567;BME280;59403;47.456;19.120;2024-01-16T15:40:23;99881.94;;;1.70;56.31
71567;BME280;59403;47.456;19.120;2024-01-16T15:42:50;99880.59;;;1.64;56.35
71567;BME280;59403;47.456;19.120;2024-01-16T15:45:17;99886.50;;;1.55;56.65
71567;BME280;59403;47.456;19.120;2024-01-16T15:47:44;99886.13;;;1.49;57.04
71567;BME280;59403;47.456;19.120;2024-01-16T15:50:11;99894.97;;;1.46;57.02
71567;BME280;59403;47.456;19.120;2024-01-16T15:52:37;99882.53;;;1.39;57.57
71567;BME280;59403;47.456;19.120;2024-01-16T15:55:04;99877.00;;;1.31;57.60
71567;BME280;59403;47.456;19.120;2024-01-16T15:57:31;99880.81;;;1.27;58.27
71567;BME280;59403;47.456;19.120;2024-01-16T15:59:59;99881.97;;;1.23;58.68
71567;BME280;59403;47.456;19.120;2024-01-16T16:02:27;99888.56;;;1.15;59.22
71567;BME280;59403;47.456;19.120;2024-01-16T16:04:57;99897.88;;;1.07;60.32
71567;BME280;59403;47.456;19.120;2024-01-16T16:07:24;99899.12;;;1.01;60.71
71567;BME280;59403;47.456;19.120;2024-01-16T16:09:50;99911.44;;;0.99;60.54
71567;BME280;59403;47.456;19.120;2024-01-16T16:12:24;99908.09;;;0.97;60.40
71567;BME280;59403;47.456;19.120;2024-01-16T16:14:51;99909.06;;;0.96;60.73
71567;BME280;59403;47.456;19.120;2024-01-16T16:17:19;99912.00;;;0.92;61.13
71567;BME280;59403;47.456;19.120;2024-01-16T16:19:46;99920.34;;;0.84;61.84
71567;BME280;59403;47.456;19.120;2024-01-16T16:22:14;99928.06;;;0.73;63.59
71567;BME280;59403;47.456;19.120;2024-01-16T16:24:40;99933.41;;;0.72;63.25
71567;BME280;59403;47.456;19.120;2024-01-16T16:27:21;99932.78;;;0.68;63.27
71567;BME280;59403;47.456;19.120;2024-01-16T16:29:48;99930.28;;;0.67;63.78
71567;BME280;59403;47.456;19.120;2024-01-16T16:32:15;99937.47;;;0.63;64.49